sensor_id;sensor_type;location;lat;lon;timestamp;pressure;altitude;pressure_sealevel;temperature;humidity
49541;BME280;35432;43.566;1.398;2023-02-16T00:00:43;101272.44;;;6.76;71.80
49541;BME280;35432;43.566;1.398;2023-02-16T00:03:14;101272.28;;;6.70;70.88
49541;BME280;35432;43.566;1.398;2023-02-16T00:05:39;101266.91;;;6.65;71.39
49541;BME280;35432;43.566;1.398;2023-02-16T00:08:05;101261.53;;;6.60;71.89
49541;BME280;35432;43.566;1.398;2023-02-16T00:10:33;101258.00;;;6.58;71.78
49541;BME280;35432;43.566;1.398;2023-02-16T00:12:59;101253.59;;;6.57;71.14
49541;BME280;35432;43.566;1.398;2023-02-16T00:15:54;101257.13;;;6.58;71.61
49541;BME280;35432;43.566;1.398;2023-02-16T00:18:20;101260.59;;;6.58;72.25
49541;BME280;35432;43.566;1.398;2023-02-16T00:20:47;101258.84;;;6.57;72.58
49541;BME280;35432;43.566;1.398;2023-02-16T00:23:13;101263.22;;;6.58;71.75
49541;BME280;35432;43.566;1.398;2023-02-16T00:25:39;101262.31;;;6.56;71.57
49541;BME280;35432;43.566;1.398;2023-02-16T00:28:10;101268.34;;;6.54;71.76
49541;BME280;35432;43.566;1.398;2023-02-16T00:30:37;101260.44;;;6.52;72.02
49541;BME280;35432;43.566;1.398;2023-02-16T00:33:18;101256.91;;;6.50;72.51
49541;BME280;35432;43.566;1.398;2023-02-16T00:35:44;101259.50;;;6.50;72.20
49541;BME280;35432;43.566;1.398;2023-02-16T00:38:11;101256.81;;;6.47;72.42
49541;BME280;35432;43.566;1.398;2023-02-16T00:40:36;101259.34;;;6.44;72.31
49541;BME280;35432;43.566;1.398;2023-02-16T00:43:02;101268.88;;;6.42;71.62
49541;BME280;35432;43.566;1.398;2023-02-16T00:45:29;101268.75;;;6.39;72.24
49541;BME280;35432;43.566;1.398;2023-02-16T00:47:58;101266.91;;;6.35;72.01
49541;BME280;35432;43.566;1.398;2023-02-16T00:50:32;101266.81;;;6.31;71.59
49541;BME280;35432;43.566;1.398;2023-02-16T00:52:59;101272.81;;;6.27;72.38
49541;BME280;35432;43.566;1.398;2023-02-16T00:55:29;101270.03;;;6.23;72.20
49541;BME280;35432;43.566;1.398;2023-02-16T00:58:15;101262.81;;;6.14;70.98
49541;BME280;35432;43.566;1.398;2023-02-16T01:00:47;101267.16;;;6.13;71.51
49541;BME280;35432;43.566;1.398;2023-02-16T01:03:20;101267.00;;;6.09;71.53
49541;BME280;35432;43.566;1.398;2023-02-16T01:05:47;101264.31;;;6.06;72.03
49541;BME280;35432;43.566;1.398;2023-02-16T01:08:14;101259.00;;;6.02;71.62
49541;BME280;35432;43.566;1.398;2023-02-16T01:11:01;101258.88;;;5.99;71.59
49541;BME280;35432;43.566;1.398;2023-02-16T01:13:54;101257.75;;;5.91;71.50
49541;BME280;35432;43.566;1.398;2023-02-16T01:16:22;101253.34;;;5.90;72.17
49541;BME280;35432;43.566;1.398;2023-02-16T01:18:49;101252.31;;;5.85;71.47
49541;BME280;35432;43.566;1.398;2023-02-16T01:21:15;101251.28;;;5.80;71.04
49541;BME280;35432;43.566;1.398;2023-02-16T01:23:40;101256.41;;;5.77;71.92
49541;BME280;35432;43.566;1.398;2023-02-16T01:26:13;101252.78;;;5.71;71.59
49541;BME280;35432;43.566;1.398;2023-02-16T01:28:39;101251.78;;;5.68;71.72
49541;BME280;35432;43.566;1.398;2023-02-16T01:31:04;101264.69;;;5.63;71.47
49541;BME280;35432;43.566;1.398;2023-02-16T01:33:31;101269.81;;;5.60;71.54
49541;BME280;35432;43.566;1.398;2023-02-16T01:35:56;101266.28;;;5.58;71.90
49541;BME280;35432;43.566;1.398;2023-02-16T01:38:25;101265.28;;;5.54;71.27
49541;BME280;35432;43.566;1.398;2023-02-16T01:43:59;101261.44;;;5.43;71.49
49541;BME280;35432;43.566;1.398;2023-02-16T01:49:19;101266.38;;;5.34;71.45
49541;BME280;35432;43.566;1.398;2023-02-16T01:51:56;101260.13;;;5.30;71.20
49541;BME280;35432;43.566;1.398;2023-02-16T01:54:39;101273.97;;;5.27;71.16
49541;BME280;35432;43.566;1.398;2023-02-16T01:57:33;101286.25;;;5.30;71.61
49541;BME280;35432;43.566;1.398;2023-02-16T02:00:26;101273.38;;;5.35;71.75
49541;BME280;35432;43.566;1.398;2023-02-16T02:03:00;101265.56;;;5.36;72.23
49541;BME280;35432;43.566;1.398;2023-02-16T02:05:47;101264.81;;;5.40;72.37
49541;BME280;35432;43.566;1.398;2023-02-16T02:15:46;101274.84;;;5.54;72.34
49541;BME280;35432;43.566;1.398;2023-02-16T02:18:12;101270.63;;;5.57;72.48
49541;BME280;35432;43.566;1.398;2023-02-16T02:20:55;101268.13;;;5.62;72.61
49541;BME280;35432;43.566;1.398;2023-02-16T02:40:22;101246.06;;;6.07;73.60
49541;BME280;35432;43.566;1.398;2023-02-16T02:45:28;101240.34;;;6.21;73.50
49541;BME280;35432;43.566;1.398;2023-02-16T02:47:56;101237.03;;;6.26;73.98
49541;BME280;35432;43.566;1.398;2023-02-16T02:50:31;101232.66;;;6.27;73.69
49541;BME280;35432;43.566;1.398;2023-02-16T02:53:02;101239.69;;;6.28;74.59
49541;BME280;35432;43.566;1.398;2023-02-16T02:55:28;101242.41;;;6.31;74.21
49541;BME280;35432;43.566;1.398;2023-02-16T02:58:16;101238.28;;;6.39;74.82
49541;BME280;35432;43.566;1.398;2023-02-16T03:01:02;101235.88;;;6.47;74.08
49541;BME280;35432;43.566;1.398;2023-02-16T03:03:31;101236.03;;;6.53;74.21
49541;BME280;35432;43.566;1.398;2023-02-16T03:08:38;101252.97;;;6.65;73.97
49541;BME280;35432;43.566;1.398;2023-02-16T03:11:23;101247.81;;;6.69;73.56
49541;BME280;35432;43.566;1.398;2023-02-16T03:14:13;101238.34;;;6.73;74.38
49541;BME280;35432;43.566;1.398;2023-02-16T03:16:43;101245.41;;;6.75;73.90
49541;BME280;35432;43.566;1.398;2023-02-16T03:19:11;101247.91;;;6.72;74.09
49541;BME280;35432;43.566;1.398;2023-02-16T03:21:56;101240.78;;;6.67;74.41
49541;BME280;35432;43.566;1.398;2023-02-16T03:24:42;101240.72;;;6.64;75.18
49541;BME280;35432;43.566;1.398;2023-02-16T03:27:29;101248.44;;;6.59;74.73
49541;BME280;35432;43.566;1.398;2023-02-16T03:30:15;101249.28;;;6.59;74.37
49541;BME280;35432;43.566;1.398;2023-02-16T03:32:43;101249.34;;;6.61;74.16
49541;BME280;35432;43.566;1.398;2023-02-16T03:35:09;101246.75;;;6.63;74.76
49541;BME280;35432;43.566;1.398;2023-02-16T03:37:38;101253.81;;;6.64;74.89
49541;BME280;35432;43.566;1.398;2023-02-16T03:40:06;101248.56;;;6.64;74.45
49541;BME280;35432;43.566;1.398;2023-02-16T03:42:52;101252.91;;;6.63;75.01
49541;BME280;35432;43.566;1.398;2023-02-16T03:45:19;101252.84;;;6.61;74.85
49541;BME280;35432;43.566;1.398;2023-02-16T03:47:45;101254.50;;;6.58;74.95
49541;BME280;35432;43.566;1.398;2023-02-16T03:50:10;101248.38;;;6.57;74.67
49541;BME280;35432;43.566;1.398;2023-02-16T03:52:36;101250.13;;;6.58;74.23
49541;BME280;35432;43.566;1.398;2023-02-16T03:55:01;101248.44;;;6.60;74.20
49541;BME280;35432;43.566;1.398;2023-02-16T03:57:27;101252.81;;;6.60;74.20
49541;BME280;35432;43.566;1.398;2023-02-16T03:59:52;101258.06;;;6.60;74.65
49541;BME280;35432;43.566;1.398;2023-02-16T04:02:18;101264.06;;;6.57;74.49
49541;BME280;35432;43.566;1.398;2023-02-16T04:04:44;101257.06;;;6.56;74.73
49541;BME280;35432;43.566;1.398;2023-02-16T04:07:10;101267.53;;;6.56;74.66
49541;BME280;35432;43.566;1.398;2023-02-16T04:09:35;101270.13;;;6.55;74.46
49541;BME280;35432;43.566;1.398;2023-02-16T04:12:00;101264.56;;;6.44;74.28
49541;BME280;35432;43.566;1.398;2023-02-16T04:14:44;101260.97;;;6.40;74.31
49541;BME280;35432;43.566;1.398;2023-02-16T04:17:10;101269.72;;;6.41;74.74
49541;BME280;35432;43.566;1.398;2023-02-16T04:19:35;101267.94;;;6.40;74.64
49541;BME280;35432;43.566;1.398;2023-02-16T04:22:00;101277.47;;;6.38;74.53
49541;BME280;35432;43.566;1.398;2023-02-16T04:24:26;101270.44;;;6.37;73.67
49541;BME280;35432;43.566;1.398;2023-02-16T04:26:51;101272.97;;;6.34;73.91
49541;BME280;35432;43.566;1.398;2023-02-16T04:29:17;101275.50;;;6.30;74.55
49541;BME280;35432;43.566;1.398;2023-02-16T04:31:42;101272.66;;;6.23;74.35
49541;BME280;35432;43.566;1.398;2023-02-16T04:34:07;101269.94;;;6.18;74.02
49541;BME280;35432;43.566;1.398;2023-02-16T04:36:33;101280.16;;;6.10;73.68
49541;BME280;35432;43.566;1.398;2023-02-16T04:38:58;101273.00;;;6.05;73.87
49541;BME280;35432;43.566;1.398;2023-02-16T04:41:24;101272.78;;;5.98;73.46
49541;BME280;35432;43.566;1.398;2023-02-16T04:43:51;101279.69;;;5.96;74.36
49541;BME280;35432;43.566;1.398;2023-02-16T04:46:16;101284.84;;;5.95;73.88
49541;BME280;35432;43.566;1.398;2023-02-16T04:48:43;101287.47;;;5.95;74.34
49541;BME280;35432;43.566;1.398;2023-02-16T04:51:09;101290.16;;;5.96;74.16
49541;BME280;35432;43.566;1.398;2023-02-16T04:53:34;101295.41;;;5.98;74.04
49541;BME280;35432;43.566;1.398;2023-02-16T04:55:59;101294.47;;;5.96;73.30
49541;BME280;35432;43.566;1.398;2023-02-16T04:58:25;101285.53;;;5.89;73.72
49541;BME280;35432;43.566;1.398;2023-02-16T05:00:50;101283.56;;;5.80;73.52
49541;BME280;35432;43.566;1.398;2023-02-16T05:03:16;101281.47;;;5.70;73.21
49541;BME280;35432;43.566;1.398;2023-02-16T05:05:41;101282.16;;;5.64;73.77
49541;BME280;35432;43.566;1.398;2023-02-16T05:08:07;101283.81;;;5.62;73.70
49541;BME280;35432;43.566;1.398;2023-02-16T05:10:32;101289.94;;;5.63;73.75
49541;BME280;35432;43.566;1.398;2023-02-16T05:12:57;101292.56;;;5.63;73.34
49541;BME280;35432;43.566;1.398;2023-02-16T05:15:41;101291.63;;;5.60;73.47
49541;BME280;35432;43.566;1.398;2023-02-16T05:18:07;101303.78;;;5.60;73.62
49541;BME280;35432;43.566;1.398;2023-02-16T05:20:32;101303.75;;;5.58;74.20
49541;BME280;35432;43.566;1.398;2023-02-16T05:23:16;101299.41;;;5.59;74.10
49541;BME280;35432;43.566;1.398;2023-02-16T05:25:41;101304.63;;;5.59;73.61
49541;BME280;35432;43.566;1.398;2023-02-16T05:28:07;101306.31;;;5.57;73.63
49541;BME280;35432;43.566;1.398;2023-02-16T05:30:32;101308.88;;;5.55;73.33
49541;BME280;35432;43.566;1.398;2023-02-16T05:32:58;101306.22;;;5.54;74.21
49541;BME280;35432;43.566;1.398;2023-02-16T05:35:23;101309.66;;;5.53;73.93
49541;BME280;35432;43.566;1.398;2023-02-16T05:37:49;101305.16;;;5.49;73.71
49541;BME280;35432;43.566;1.398;2023-02-16T05:40:14;101313.75;;;5.44;73.55
49541;BME280;35432;43.566;1.398;2023-02-16T05:42:40;101309.19;;;5.39;73.17
49541;BME280;35432;43.566;1.398;2023-02-16T05:45:05;101304.53;;;5.30;72.89
49541;BME280;35432;43.566;1.398;2023-02-16T05:47:31;101301.50;;;5.17;73.45
49541;BME280;35432;43.566;1.398;2023-02-16T05:49:56;101301.28;;;5.11;73.39
49541;BME280;35432;43.566;1.398;2023-02-16T05:52:22;101303.75;;;5.07;73.97
49541;BME280;35432;43.566;1.398;2023-02-16T05:54:47;101304.41;;;5.01;73.72
49541;BME280;35432;43.566;1.398;2023-02-16T05:57:13;101303.41;;;4.97;73.42
49541;BME280;35432;43.566;1.398;2023-02-16T05:59:38;101297.75;;;4.85;73.61
49541;BME280;35432;43.566;1.398;2023-02-16T06:02:03;101301.06;;;4.81;73.61
49541;BME280;35432;43.566;1.398;2023-02-16T06:04:29;101304.25;;;4.72;73.40
49541;BME280;35432;43.566;1.398;2023-02-16T06:06:56;101302.41;;;4.69;73.44
49541;BME280;35432;43.566;1.398;2023-02-16T06:09:22;101304.91;;;4.66;73.85
49541;BME280;35432;43.566;1.398;2023-02-16T06:11:47;101313.50;;;4.64;73.66
49541;BME280;35432;43.566;1.398;2023-02-16T06:14:15;101313.38;;;4.60;73.63
49541;BME280;35432;43.566;1.398;2023-02-16T06:16:43;101318.56;;;4.59;73.30
49541;BME280;35432;43.566;1.398;2023-02-16T06:19:09;101320.16;;;4.55;73.10
49541;BME280;35432;43.566;1.398;2023-02-16T06:21:35;101319.16;;;4.52;73.59
49541;BME280;35432;43.566;1.398;2023-02-16T06:24:01;101319.94;;;4.49;73.26
49541;BME280;35432;43.566;1.398;2023-02-16T06:26:26;101317.16;;;4.44;73.31
49541;BME280;35432;43.566;1.398;2023-02-16T06:28:52;101321.34;;;4.41;73.23
49541;BME280;35432;43.566;1.398;2023-02-16T06:31:18;101321.22;;;4.38;73.70
49541;BME280;35432;43.566;1.398;2023-02-16T06:33:43;101333.22;;;4.33;73.10
49541;BME280;35432;43.566;1.398;2023-02-16T06:36:09;101339.19;;;4.30;73.25
49541;BME280;35432;43.566;1.398;2023-02-16T06:38:35;101341.75;;;4.28;73.25
49541;BME280;35432;43.566;1.398;2023-02-16T06:41:01;101333.81;;;4.25;73.45
49541;BME280;35432;43.566;1.398;2023-02-16T06:43:26;101330.25;;;4.23;73.09
49541;BME280;35432;43.566;1.398;2023-02-16T06:45:51;101346.59;;;4.19;73.29
49541;BME280;35432;43.566;1.398;2023-02-16T06:48:17;101350.72;;;4.14;72.85
49541;BME280;35432;43.566;1.398;2023-02-16T06:50:42;101339.13;;;4.06;73.27
49541;BME280;35432;43.566;1.398;2023-02-16T06:53:08;101335.44;;;4.00;72.94
49541;BME280;35432;43.566;1.398;2023-02-16T06:55:33;101344.09;;;3.99;72.99
49541;BME280;35432;43.566;1.398;2023-02-16T06:58:05;101343.13;;;3.97;73.20
49541;BME280;35432;43.566;1.398;2023-02-16T07:00:32;101346.56;;;3.96;73.24
49541;BME280;35432;43.566;1.398;2023-02-16T07:02:58;101353.50;;;3.96;73.03
49541;BME280;35432;43.566;1.398;2023-02-16T07:05:23;101352.47;;;3.92;73.17
49541;BME280;35432;43.566;1.398;2023-02-16T07:07:49;101354.09;;;3.88;72.81
49541;BME280;35432;43.566;1.398;2023-02-16T07:10:15;101362.78;;;3.89;73.15
49541;BME280;35432;43.566;1.398;2023-02-16T07:12:40;101365.50;;;3.92;73.49
49541;BME280;35432;43.566;1.398;2023-02-16T07:15:06;101370.00;;;3.96;73.33
49541;BME280;35432;43.566;1.398;2023-02-16T07:17:32;101383.22;;;4.01;73.17
49541;BME280;35432;43.566;1.398;2023-02-16T07:19:57;101371.97;;;4.02;73.21
49541;BME280;35432;43.566;1.398;2023-02-16T07:22:23;101373.94;;;4.08;72.85
49541;BME280;35432;43.566;1.398;2023-02-16T07:24:48;101372.41;;;4.13;72.85
49541;BME280;35432;43.566;1.398;2023-02-16T07:27:14;101370.19;;;4.22;72.99
49541;BME280;35432;43.566;1.398;2023-02-16T07:29:39;101373.16;;;4.31;72.24
49541;BME280;35432;43.566;1.398;2023-02-16T07:32:05;101369.94;;;4.39;72.49
49541;BME280;35432;43.566;1.398;2023-02-16T07:34:30;101366.63;;;4.43;72.24
49541;BME280;35432;43.566;1.398;2023-02-16T07:36:56;101362.53;;;4.50;72.35
49541;BME280;35432;43.566;1.398;2023-02-16T07:39:21;101372.34;;;4.55;71.55
49541;BME280;35432;43.566;1.398;2023-02-16T07:41:47;101383.00;;;4.62;71.55
49541;BME280;35432;43.566;1.398;2023-02-16T07:44:13;101385.84;;;4.68;71.81
49541;BME280;35432;43.566;1.398;2023-02-16T07:46:38;101396.03;;;4.84;72.05
49541;BME280;35432;43.566;1.398;2023-02-16T07:49:03;101398.53;;;5.06;71.42
49541;BME280;35432;43.566;1.398;2023-02-16T07:51:29;101395.00;;;5.28;71.45
49541;BME280;35432;43.566;1.398;2023-02-16T07:53:56;101392.16;;;5.46;71.11
49541;BME280;35432;43.566;1.398;2023-02-16T07:56:26;101393.56;;;5.62;70.55
49541;BME280;35432;43.566;1.398;2023-02-16T07:58:53;101402.00;;;5.79;70.32
49541;BME280;35432;43.566;1.398;2023-02-16T08:01:19;101401.72;;;5.97;70.18
49541;BME280;35432;43.566;1.398;2023-02-16T08:03:45;101402.47;;;6.19;70.19
49541;BME280;35432;43.566;1.398;2023-02-16T08:06:11;101403.25;;;6.44;69.29
49541;BME280;35432;43.566;1.398;2023-02-16T08:08:37;101399.72;;;6.72;69.28
49541;BME280;35432;43.566;1.398;2023-02-16T08:11:17;101404.03;;;6.99;66.89
49541;BME280;35432;43.566;1.398;2023-02-16T08:13:44;101409.13;;;7.25;68.77
49541;BME280;35432;43.566;1.398;2023-02-16T08:16:12;101397.84;;;7.60;67.96
49541;BME280;35432;43.566;1.398;2023-02-16T08:18:38;101395.63;;;8.12;67.47
49541;BME280;35432;43.566;1.398;2023-02-16T08:21:12;101399.25;;;8.54;66.38
49541;BME280;35432;43.566;1.398;2023-02-16T08:23:46;101390.53;;;8.97;62.97
49541;BME280;35432;43.566;1.398;2023-02-16T08:26:16;101397.94;;;9.16;65.05
49541;BME280;35432;43.566;1.398;2023-02-16T08:28:43;101397.41;;;9.81;64.87
49541;BME280;35432;43.566;1.398;2023-02-16T08:31:13;101391.63;;;11.31;64.23
49541;BME280;35432;43.566;1.398;2023-02-16T08:33:39;101395.44;;;12.70;62.42
49541;BME280;35432;43.566;1.398;2023-02-16T08:36:05;101382.53;;;13.60;61.07
49541;BME280;35432;43.566;1.398;2023-02-16T08:38:35;101387.84;;;13.66;59.71
49541;BME280;35432;43.566;1.398;2023-02-16T08:41:00;101387.84;;;13.61;58.95
49541;BME280;35432;43.566;1.398;2023-02-16T08:43:26;101390.50;;;13.72;58.09
49541;BME280;35432;43.566;1.398;2023-02-16T08:45:52;101392.22;;;13.52;58.22
49541;BME280;35432;43.566;1.398;2023-02-16T08:48:17;101383.44;;;13.82;57.44
49541;BME280;35432;43.566;1.398;2023-02-16T08:50:44;101381.53;;;14.88;56.73
49541;BME280;35432;43.566;1.398;2023-02-16T08:53:12;101388.53;;;15.02;56.33
49541;BME280;35432;43.566;1.398;2023-02-16T08:55:38;101381.88;;;15.77;55.24
49541;BME280;35432;43.566;1.398;2023-02-16T08:58:04;101385.44;;;17.44;53.49
49541;BME280;35432;43.566;1.398;2023-02-16T09:00:30;101374.00;;;19.32;51.25
49541;BME280;35432;43.566;1.398;2023-02-16T09:02:58;101378.19;;;21.14;49.27
49541;BME280;35432;43.566;1.398;2023-02-16T09:05:24;101365.81;;;22.72;47.13
49541;BME280;35432;43.566;1.398;2023-02-16T09:07:49;101374.81;;;24.07;44.97
49541;BME280;35432;43.566;1.398;2023-02-16T09:10:16;101362.28;;;25.07;43.28
49541;BME280;35432;43.566;1.398;2023-02-16T09:12:43;101363.94;;;26.02;41.58
49541;BME280;35432;43.566;1.398;2023-02-16T09:15:12;101365.41;;;26.77;40.28
49541;BME280;35432;43.566;1.398;2023-02-16T09:17:38;101365.31;;;27.44;39.48
49541;BME280;35432;43.566;1.398;2023-02-16T09:20:04;101373.59;;;28.04;38.24
49541;BME280;35432;43.566;1.398;2023-02-16T09:22:30;101370.31;;;28.58;38.01
49541;BME280;35432;43.566;1.398;2023-02-16T09:24:57;101368.34;;;29.04;37.04
49541;BME280;35432;43.566;1.398;2023-02-16T09:27:22;101368.81;;;29.53;36.46
49541;BME280;35432;43.566;1.398;2023-02-16T09:29:47;101367.94;;;29.79;35.58
49541;BME280;35432;43.566;1.398;2023-02-16T09:32:14;101373.34;;;30.20;35.15
49541;BME280;35432;43.566;1.398;2023-02-16T09:34:39;101366.53;;;30.53;34.94
49541;BME280;35432;43.566;1.398;2023-02-16T09:37:06;101377.47;;;30.90;33.90
49541;BME280;35432;43.566;1.398;2023-02-16T09:39:31;101377.03;;;30.97;34.07
49541;BME280;35432;43.566;1.398;2023-02-16T09:45:13;101367.22;;;31.20;33.53
49541;BME280;35432;43.566;1.398;2023-02-16T09:47:45;101365.38;;;31.45;31.59
49541;BME280;35432;43.566;1.398;2023-02-16T09:53:13;101377.34;;;31.91;30.26
49541;BME280;35432;43.566;1.398;2023-02-16T09:58:21;101368.78;;;32.31;31.75
49541;BME280;35432;43.566;1.398;2023-02-16T10:00:51;101361.38;;;32.56;31.06
49541;BME280;35432;43.566;1.398;2023-02-16T10:09:02;101374.63;;;32.38;30.83
49541;BME280;35432;43.566;1.398;2023-02-16T10:11:44;101368.38;;;32.25;30.58
49541;BME280;35432;43.566;1.398;2023-02-16T10:20:10;101370.19;;;32.71;29.19
49541;BME280;35432;43.566;1.398;2023-02-16T10:22:41;101363.38;;;32.88;27.92
49541;BME280;35432;43.566;1.398;2023-02-16T10:25:17;101362.50;;;32.99;29.12
49541;BME280;35432;43.566;1.398;2023-02-16T10:27:48;101361.63;;;32.99;27.38
49541;BME280;35432;43.566;1.398;2023-02-16T10:30:20;101363.34;;;33.11;29.12
49541;BME280;35432;43.566;1.398;2023-02-16T10:36:00;101369.25;;;33.28;30.10
49541;BME280;35432;43.566;1.398;2023-02-16T10:38:41;101364.44;;;33.31;29.21
49541;BME280;35432;43.566;1.398;2023-02-16T10:41:33;101356.09;;;33.44;28.87
49541;BME280;35432;43.566;1.398;2023-02-16T10:44:20;101362.75;;;33.52;29.23
49541;BME280;35432;43.566;1.398;2023-02-16T10:46:53;101359.59;;;33.68;27.17
49541;BME280;35432;43.566;1.398;2023-02-16T10:49:20;101367.00;;;33.77;29.02
49541;BME280;35432;43.566;1.398;2023-02-16T10:51:48;101364.13;;;33.78;28.16
49541;BME280;35432;43.566;1.398;2023-02-16T10:54:31;101358.78;;;33.56;28.39
49541;BME280;35432;43.566;1.398;2023-02-16T10:57:01;101358.97;;;33.64;28.50
49541;BME280;35432;43.566;1.398;2023-02-16T11:02:16;101365.59;;;33.83;28.68
49541;BME280;35432;43.566;1.398;2023-02-16T11:04:46;101352.50;;;33.98;28.27
49541;BME280;35432;43.566;1.398;2023-02-16T11:07:21;101356.13;;;33.98;27.54
49541;BME280;35432;43.566;1.398;2023-02-16T11:09:48;101357.63;;;34.12;28.37
49541;BME280;35432;43.566;1.398;2023-02-16T11:12:39;101352.41;;;33.88;28.11
49541;BME280;35432;43.566;1.398;2023-02-16T11:17:49;101358.81;;;33.33;28.07
49541;BME280;35432;43.566;1.398;2023-02-16T11:23:31;101358.00;;;31.83;29.83
49541;BME280;35432;43.566;1.398;2023-02-16T11:31:36;101353.66;;;29.63;31.63
49541;BME280;35432;43.566;1.398;2023-02-16T11:34:12;101351.69;;;29.10;34.00
49541;BME280;35432;43.566;1.398;2023-02-16T11:36:43;101363.50;;;28.51;36.87
49541;BME280;35432;43.566;1.398;2023-02-16T11:41:43;101355.97;;;27.50;37.16
49541;BME280;35432;43.566;1.398;2023-02-16T11:44:41;101355.22;;;26.82;33.17
49541;BME280;35432;43.566;1.398;2023-02-16T11:47:31;101354.19;;;26.17;37.39
49541;BME280;35432;43.566;1.398;2023-02-16T11:50:27;101353.56;;;25.58;38.13
49541;BME280;35432;43.566;1.398;2023-02-16T11:53:12;101348.50;;;25.13;39.15
49541;BME280;35432;43.566;1.398;2023-02-16T11:55:45;101359.59;;;24.88;42.23
49541;BME280;35432;43.566;1.398;2023-02-16T12:03:35;101353.13;;;23.45;40.97
49541;BME280;35432;43.566;1.398;2023-02-16T12:06:43;101351.31;;;23.00;42.85
49541;BME280;35432;43.566;1.398;2023-02-16T12:09:35;101355.25;;;22.67;43.46
49541;BME280;35432;43.566;1.398;2023-02-16T12:12:20;101348.72;;;22.49;43.83
49541;BME280;35432;43.566;1.398;2023-02-16T12:26:55;101337.50;;;21.30;44.31
49541;BME280;35432;43.566;1.398;2023-02-16T12:40:17;101316.94;;;20.72;47.96
49541;BME280;35432;43.566;1.398;2023-02-16T12:45:40;101315.81;;;20.49;47.41
49541;BME280;35432;43.566;1.398;2023-02-16T12:50:36;101308.28;;;20.32;48.57
49541;BME280;35432;43.566;1.398;2023-02-16T12:53:29;101306.22;;;20.08;43.52
49541;BME280;35432;43.566;1.398;2023-02-16T12:56:05;101295.69;;;20.04;49.05
49541;BME280;35432;43.566;1.398;2023-02-16T12:58:38;101299.47;;;19.95;49.06
49541;BME280;35432;43.566;1.398;2023-02-16T13:01:26;101303.44;;;19.78;44.83
49541;BME280;35432;43.566;1.398;2023-02-16T13:04:12;101298.34;;;19.69;46.93
49541;BME280;35432;43.566;1.398;2023-02-16T13:07:06;101290.69;;;19.54;46.32
49541;BME280;35432;43.566;1.398;2023-02-16T13:15:12;101272.75;;;19.22;48.22
49541;BME280;35432;43.566;1.398;2023-02-16T13:17:43;101277.28;;;19.19;49.75
49541;BME280;35432;43.566;1.398;2023-02-16T13:20:15;101271.22;;;19.12;50.14
49541;BME280;35432;43.566;1.398;2023-02-16T13:31:13;101268.53;;;19.12;51.66
49541;BME280;35432;43.566;1.398;2023-02-16T13:33:57;101264.09;;;19.11;48.74
49541;BME280;35432;43.566;1.398;2023-02-16T13:39:29;101259.97;;;18.98;50.95
49541;BME280;35432;43.566;1.398;2023-02-16T13:44:53;101256.72;;;18.83;48.48
49541;BME280;35432;43.566;1.398;2023-02-16T13:47:29;101252.28;;;18.82;48.16
49541;BME280;35432;43.566;1.398;2023-02-16T13:53:16;101250.69;;;18.75;48.24
49541;BME280;35432;43.566;1.398;2023-02-16T13:55:43;101248.72;;;18.83;51.58
49541;BME280;35432;43.566;1.398;2023-02-16T14:00:45;101248.84;;;18.77;48.08
49541;BME280;35432;43.566;1.398;2023-02-16T14:03:36;101240.13;;;18.69;46.84
49541;BME280;35432;43.566;1.398;2023-02-16T14:06:27;101240.41;;;18.56;46.73
49541;BME280;35432;43.566;1.398;2023-02-16T14:14:29;101243.94;;;18.58;46.45
49541;BME280;35432;43.566;1.398;2023-02-16T14:22:48;101237.97;;;18.47;47.67
49541;BME280;35432;43.566;1.398;2023-02-16T14:38:29;101241.19;;;18.61;51.28
49541;BME280;35432;43.566;1.398;2023-02-16T14:40:59;101241.19;;;18.61;50.66
49541;BME280;35432;43.566;1.398;2023-02-16T14:43:41;101242.25;;;18.54;47.22
49541;BME280;35432;43.566;1.398;2023-02-16T14:57:01;101221.50;;;18.26;48.69
49541;BME280;35432;43.566;1.398;2023-02-16T15:04:48;101221.72;;;18.14;51.36
49541;BME280;35432;43.566;1.398;2023-02-16T15:07:15;101220.13;;;18.06;51.54
49541;BME280;35432;43.566;1.398;2023-02-16T15:09:43;101216.66;;;18.01;51.29
49541;BME280;35432;43.566;1.398;2023-02-16T15:12:13;101222.06;;;17.95;49.24
49541;BME280;35432;43.566;1.398;2023-02-16T15:17:25;101224.06;;;17.84;47.77
49541;BME280;35432;43.566;1.398;2023-02-16T15:19:54;101226.81;;;17.79;51.62
49541;BME280;35432;43.566;1.398;2023-02-16T15:22:23;101228.69;;;17.72;51.63
49541;BME280;35432;43.566;1.398;2023-02-16T15:25:04;101228.81;;;17.66;50.75
49541;BME280;35432;43.566;1.398;2023-02-16T15:27:32;101219.97;;;17.64;52.35
49541;BME280;35432;43.566;1.398;2023-02-16T15:30:22;101221.00;;;17.57;47.64
49541;BME280;35432;43.566;1.398;2023-02-16T15:32:50;101226.28;;;17.60;52.58
49541;BME280;35432;43.566;1.398;2023-02-16T15:35:23;101219.31;;;17.53;49.41
49541;BME280;35432;43.566;1.398;2023-02-16T15:38:19;101224.72;;;17.46;49.16
49541;BME280;35432;43.566;1.398;2023-02-16T15:40:44;101215.88;;;17.44;52.69
49541;BME280;35432;43.566;1.398;2023-02-16T15:46:36;101210.72;;;17.35;51.96
49541;BME280;35432;43.566;1.398;2023-02-16T15:49:28;101223.31;;;17.27;47.96
49541;BME280;35432;43.566;1.398;2023-02-16T15:51:58;101215.34;;;17.25;53.13
49541;BME280;35432;43.566;1.398;2023-02-16T15:54:29;101211.03;;;17.16;51.94
49541;BME280;35432;43.566;1.398;2023-02-16T15:57:00;101216.47;;;17.10;52.17
49541;BME280;35432;43.566;1.398;2023-02-16T16:04:31;101213.97;;;16.99;53.47
49541;BME280;35432;43.566;1.398;2023-02-16T16:07:06;101212.22;;;16.95;53.63
49541;BME280;35432;43.566;1.398;2023-02-16T16:09:34;101216.72;;;16.91;53.65
49541;BME280;35432;43.566;1.398;2023-02-16T16:12:03;101218.53;;;16.89;53.88
49541;BME280;35432;43.566;1.398;2023-02-16T16:14:32;101214.09;;;16.87;54.05
49541;BME280;35432;43.566;1.398;2023-02-16T16:16:59;101217.72;;;16.84;54.12
49541;BME280;35432;43.566;1.398;2023-02-16T16:19:33;101221.31;;;16.80;51.55